»·PEaware :: BURNY07 KSPS-KAMA

BURNY07 :: KSPS-KAMA

FLIGHT INFORMATION

Flight Status: Arrived
Operator: Unknown
More flights by this operator :: More flights under this callsign
Pilot: 80 FTW ENJJPT (22981)
Aircraft: Unknown
(T-38)
More flights by this aircraft type
Origin: KSPS Sheppard AFB/Wichita Falls Mu
United States
Destination: KAMA Amarillo Intl
United States
More flights between these airports :: More routes between these airports
Route: +SPS PNH
File this flight plan on PilotEdge
Remarks: RETURN KAMA CDS VASTY SPS KSPS FL270
Altitude:
(Current/Filed)
28,000ft
Speed:
(Current/Filed)
0kts
Departed: 02-Sep-20 11:56 AM
Arrived: 02-Sep-20 12:50 PM
Distance/Time
Traveled:
175nm/0:54
Distance/Time
To Go:
Arrived

Flight Plot

Page will automatically refresh every two minutes.

Flight plan parsing failed; only flown route is shown


Map Options




Map Legend


Flown Route
Filed Route
Departure Airport
Arrival Airport
Navaid (VOR, NDB)
Fix

Horizontal Profiles

Position Reports

Time Latitude Longitude Heading Altitude Ground
Speed
02-Sep-20 11:55 34.264760 -99.490148 299 27938ft 456kts
02-Sep-20 11:56 34.326967 -99.624519 298 28009ft 465kts
02-Sep-20 11:57 34.386891 -99.766726 296 27899ft 480kts
02-Sep-20 11:58 34.442637 -99.910800 295 27229ft 471kts
02-Sep-20 11:58 34.489922 -100.030187 296 25258ft 476kts
02-Sep-20 12:00 34.559271 -100.195739 298 23911ft 458kts
02-Sep-20 12:01 34.620228 -100.325698 300 23997ft 435kts
02-Sep-20 12:01 34.671403 -100.433402 300 24006ft 446kts
02-Sep-20 12:02 34.734395 -100.565552 300 24042ft 457kts
02-Sep-20 12:03 34.798211 -100.702243 298 24068ft 468kts
02-Sep-20 12:05 34.813435 -100.736960 298 24061ft 472kts
02-Sep-20 12:05 34.865196 -100.856481 297 24080ft 485kts
02-Sep-20 12:06 34.944521 -100.984399 328 24065ft 460kts
02-Sep-20 12:07 35.060428 -101.035627 341 21788ft 429kts
02-Sep-20 12:08 35.169648 -101.077607 343 18085ft 404kts
02-Sep-20 12:09 35.269819 -101.116371 337 16302ft 363kts
02-Sep-20 12:10 35.362346 -101.150641 358 14919ft 342kts
02-Sep-20 12:11 35.453403 -101.173445 315 14268ft 338kts
02-Sep-20 12:12 35.441008 -101.271415 237 11752ft 332kts
02-Sep-20 12:13 35.391403 -101.368007 237 9007ft 335kts
02-Sep-20 12:14 35.343936 -101.461893 239 6840ft 305kts
02-Sep-20 12:15 35.305245 -101.547334 241 5337ft 262kts
02-Sep-20 12:16 35.276982 -101.610071 240 5264ft 188kts
02-Sep-20 12:17 35.250533 -101.665480 237 3946ft 185kts
02-Sep-20 12:18 35.217727 -101.718488 229 5302ft 240kts
02-Sep-20 12:19 35.239764 -101.783214 10 4849ft 248kts
02-Sep-20 12:20 35.271158 -101.717513 66 4886ft 235kts
02-Sep-20 12:21 35.332672 -101.682436 16 5932ft 270kts
02-Sep-20 12:22 35.404844 -101.656392 33 5830ft 263kts
02-Sep-20 12:23 35.437399 -101.581827 118 5880ft 268kts
02-Sep-20 12:24 35.381857 -101.536612 209 5907ft 249kts
02-Sep-20 12:25 35.329850 -101.587475 222 5056ft 232kts
02-Sep-20 12:26 35.289445 -101.634014 222 4957ft 184kts
02-Sep-20 12:27 35.252314 -101.675257 225 4010ft 183kts
02-Sep-20 12:28 35.213401 -101.720035 227 4618ft 242kts
02-Sep-20 12:29 35.163557 -101.783823 203 6010ft 252kts
02-Sep-20 12:30 35.089363 -101.796274 186 5956ft 256kts
02-Sep-20 12:31 35.018813 -101.804734 185 6012ft 270kts
02-Sep-20 12:32 34.942074 -101.816784 207 5920ft 278kts
02-Sep-20 12:33 34.936322 -101.896099 296 5914ft 271kts
02-Sep-20 12:34 35.000930 -101.909046 15 5960ft 273kts
02-Sep-20 12:35 35.074675 -101.883237 16 5388ft 276kts
02-Sep-20 12:36 35.128459 -101.828531 41 4911ft 224kts
02-Sep-20 12:37 35.165662 -101.782265 45 4646ft 185kts
02-Sep-20 12:38 35.200778 -101.738138 47 3994ft 180kts
02-Sep-20 12:39 35.246678 -101.678986 45 5870ft 285kts
02-Sep-20 12:40 35.233961 -101.609314 173 5991ft 258kts
02-Sep-20 12:41 35.157957 -101.618055 184 5892ft 288kts
02-Sep-20 12:42 35.096824 -101.676467 226 5901ft 287kts
02-Sep-20 12:43 35.052415 -101.751550 274 5277ft 268kts
02-Sep-20 12:44 35.062742 -101.836949 302 5128ft 255kts
02-Sep-20 12:45 35.114073 -101.854339 66 5167ft 241kts
02-Sep-20 12:46 35.154087 -101.791871 44 5037ft 190kts
02-Sep-20 12:47 35.189111 -101.750663 36 4051ft 173kts
02-Sep-20 12:48 35.217006 -101.717727 49 3610ft 51kts
02-Sep-20 12:49 35.219588 -101.712048 135 3610ft 4kts

Navigation Log

Ident Type
Flight plan parsing failed, navigation log unavailable